Time;durP1;ratioP1;P1;durP2;ratioP2;P2;SDS_P1;SDS_P2;PMS_P1;PMS_P2;Temp;Humidity;BMP_temperature;BMP_pressure;BME280_temperature;BME280_humidity;BME280_pressure;Samples;Min_cycle;Max_cycle;Signal;HPM_P1;HPM_P2
2022/04/17 00:02:06;;;;;;;1.48;1.33;;;-2.50;99.90;;;;;;5076302;28;20690;-60
2022/04/17 00:04:46;;;;;;;2.25;1.70;;;-2.50;99.90;;;;;;5105201;27;20538;-61
2022/04/17 00:07:25;;;;;;;2.25;1.50;;;-2.60;99.90;;;;;;5146152;27;20546;-61
2022/04/17 00:10:08;;;;;;;2.03;1.92;;;-2.50;99.90;;;;;;5084515;27;20549;-61
2022/04/17 00:12:48;;;;;;;1.60;1.50;;;-2.50;99.90;;;;;;5105437;27;20545;-61
2022/04/17 00:15:28;;;;;;;1.65;1.55;;;-2.50;99.90;;;;;;5105041;27;20545;-61
2022/04/17 00:18:08;;;;;;;1.92;1.60;;;-2.50;99.90;;;;;;5084819;27;20569;-61
2022/04/17 00:20:48;;;;;;;1.35;1.25;;;-2.50;99.90;;;;;;5084490;27;20568;-61
2022/04/17 00:23:28;;;;;;;1.60;1.50;;;-2.50;99.90;;;;;;5140073;27;20588;-61
2022/04/17 00:26:08;;;;;;;2.17;1.55;;;-2.60;99.90;;;;;;5083180;27;21075;-61
2022/04/17 00:28:49;;;;;;;1.92;1.58;;;-2.70;99.90;;;;;;5083940;27;20557;-61
2022/04/17 00:31:28;;;;;;;3.20;1.80;;;-2.70;99.90;;;;;;5122575;27;20906;-61
2022/04/17 00:34:08;;;;;;;1.60;1.50;;;-2.70;99.90;;;;;;5142577;27;20538;-61
2022/04/17 00:36:48;;;;;;;2.45;1.60;;;-2.80;99.90;;;;;;5059587;27;20564;-60
2022/04/17 00:39:28;;;;;;;3.03;1.35;;;-2.90;99.90;;;;;;5104335;27;20980;-61
2022/04/17 00:42:09;;;;;;;1.65;1.38;;;-2.90;99.90;;;;;;5103902;27;20576;-61
2022/04/17 00:44:49;;;;;;;2.25;2.00;;;-2.90;99.90;;;;;;5126168;27;20536;-61
2022/04/17 00:47:29;;;;;;;2.85;2.05;;;-2.90;99.90;;;;;;5146293;27;20539;-61
2022/04/17 00:50:10;;;;;;;1.92;1.55;;;-2.80;99.90;;;;;;5092079;27;20556;-61
2022/04/17 00:52:50;;;;;;;1.50;1.40;;;-2.80;99.90;;;;;;5081887;27;21100;-61
2022/04/17 00:55:30;;;;;;;1.60;1.50;;;-2.80;99.90;;;;;;5075508;28;20687;-61
2022/04/17 00:58:10;;;;;;;2.58;1.63;;;-2.80;99.90;;;;;;5069900;27;20928;-61
2022/04/17 01:00:50;;;;;;;1.50;1.40;;;-2.90;99.90;;;;;;5099435;27;20615;-61
2022/04/17 01:03:30;;;;;;;2.13;1.92;;;-3.00;99.90;;;;;;5081062;27;20627;-61
2022/04/17 01:06:09;;;;;;;1.60;1.50;;;-3.20;99.90;;;;;;5082276;28;20573;-61
2022/04/17 01:08:49;;;;;;;1.98;1.80;;;-3.30;99.90;;;;;;5083871;28;20578;-61
2022/04/17 01:11:29;;;;;;;1.70;1.60;;;-3.30;99.90;;;;;;5121384;27;20540;-61
2022/04/17 01:14:12;;;;;;;2.60;1.75;;;-3.30;99.90;;;;;;5079116;27;20872;-61
2022/04/17 01:16:52;;;;;;;2.88;1.90;;;-3.30;99.90;;;;;;5079497;27;20583;-61
2022/04/17 01:19:37;;;;;;;2.85;1.90;;;-3.30;99.90;;;;;;5124673;27;20570;-61
2022/04/17 01:22:17;;;;;;;1.80;1.35;;;-3.30;99.90;;;;;;5076562;27;21105;-61
2022/04/17 01:27:54;;;;;;;1.48;1.38;;;-3.20;99.90;;;;;;5084285;27;20560;-61
2022/04/17 01:30:33;;;;;;;1.95;1.67;;;-3.20;99.90;;;;;;5084302;27;20604;-61
2022/04/17 01:33:13;;;;;;;1.50;1.40;;;-3.20;99.90;;;;;;5067010;27;21101;-61
2022/04/17 01:35:53;;;;;;;1.55;1.45;;;-3.30;99.90;;;;;;5104921;27;20662;-61
2022/04/17 01:38:33;;;;;;;2.60;1.50;;;-3.40;99.90;;;;;;5084187;27;20543;-61
2022/04/17 01:41:25;;;;;;;1.42;1.33;;;-3.30;99.90;;;;;;5118751;27;20888;-61
2022/04/17 01:44:04;;;;;;;1.70;1.60;;;-3.10;99.90;;;;;;5104696;27;20551;-61
2022/04/17 01:46:44;;;;;;;1.90;1.70;;;-3.00;99.90;;;;;;5082401;27;20581;-61
2022/04/17 01:49:24;;;;;;;1.73;1.63;;;-3.10;99.90;;;;;;5103157;27;20579;-61
2022/04/17 01:52:05;;;;;;;1.77;1.40;;;-3.20;99.90;;;;;;5074936;27;20579;-61
2022/04/17 01:54:45;;;;;;;2.55;1.30;;;-3.30;99.90;;;;;;5084152;28;20671;-61
2022/04/17 01:57:24;;;;;;;1.30;1.20;;;-3.50;99.90;;;;;;5103395;27;20601;-61
2022/04/17 02:00:05;;;;;;;2.25;1.50;;;-3.50;99.90;;;;;;5103875;27;20546;-61
2022/04/17 02:02:46;;;;;;;3.25;2.00;;;-3.60;99.90;;;;;;5070911;27;20563;-61
2022/04/17 02:05:26;;;;;;;2.10;1.90;;;-3.50;99.90;;;;;;5125500;27;21116;-61
2022/04/17 02:08:06;;;;;;;1.75;1.65;;;-3.40;99.90;;;;;;5104753;27;21070;-61
2022/04/17 02:10:45;;;;;;;3.38;2.08;;;-3.50;99.90;;;;;;5096568;27;21155;-61
2022/04/17 02:13:25;;;;;;;2.65;2.45;;;-3.50;99.90;;;;;;5084590;27;20547;-61
2022/04/17 02:16:06;;;;;;;2.00;1.80;;;-3.50;99.90;;;;;;5078260;27;20572;-61
2022/04/17 02:18:47;;;;;;;1.90;1.80;;;-3.60;99.90;;;;;;5083268;27;20563;-61
2022/04/17 02:21:26;;;;;;;2.22;2.03;;;-3.60;99.90;;;;;;5082825;27;20572;-61
2022/04/17 02:24:07;;;;;;;2.20;2.00;;;-3.50;99.90;;;;;;5082234;27;20568;-61
2022/04/17 02:26:46;;;;;;;2.17;1.98;;;-3.60;99.90;;;;;;5083752;28;21164;-61
2022/04/17 02:29:26;;;;;;;2.13;1.95;;;-3.60;99.90;;;;;;5103475;27;20670;-61
2022/04/17 02:32:06;;;;;;;2.13;2.00;;;-3.70;99.90;;;;;;5076662;27;21151;-61
2022/04/17 02:34:47;;;;;;;2.67;2.17;;;-3.70;99.90;;;;;;5084464;27;20561;-61
2022/04/17 02:37:28;;;;;;;2.17;1.92;;;-3.70;99.90;;;;;;5099372;27;21011;-61
2022/04/17 02:40:09;;;;;;;2.67;1.95;;;-3.70;99.90;;;;;;5078423;27;20923;-61
2022/04/17 02:42:50;;;;;;;1.63;1.48;;;-3.80;99.90;;;;;;5095653;27;20990;-61
2022/04/17 02:45:29;;;;;;;2.33;2.13;;;-3.80;99.90;;;;;;5079911;27;20589;-61
2022/04/17 02:48:09;;;;;;;2.13;1.92;;;-3.70;99.90;;;;;;5080541;28;20584;-61
2022/04/17 02:50:50;;;;;;;1.70;1.60;;;-3.80;99.90;;;;;;5121344;27;20579;-61
2022/04/17 02:53:30;;;;;;;2.08;1.88;;;-3.80;99.90;;;;;;5161138;27;21451;-61
2022/04/17 02:56:11;;;;;;;1.85;1.73;;;-3.90;99.90;;;;;;5098373;27;20589;-61
2022/04/17 02:58:54;;;;;;;1.58;1.48;;;-3.90;99.90;;;;;;5083915;28;20560;-61
2022/04/17 03:07:42;;;;;;;2.05;1.88;;;-3.80;99.90;;;;;;5082924;27;20560;-61
2022/04/17 03:10:22;;;;;;;2.00;1.55;;;-3.80;99.90;;;;;;5103091;27;20574;-61
2022/04/17 03:13:02;;;;;;;2.20;2.00;;;-3.90;99.90;;;;;;5087536;27;21296;-61
2022/04/17 03:15:42;;;;;;;2.00;1.80;;;-3.90;99.90;;;;;;5136578;27;20601;-61
2022/04/17 03:18:22;;;;;;;2.95;1.90;;;-3.90;99.90;;;;;;5078957;27;20580;-61
2022/04/17 03:21:01;;;;;;;1.90;1.55;;;-3.90;99.90;;;;;;5083374;27;20557;-61
2022/04/17 03:23:41;;;;;;;1.45;1.35;;;-3.90;99.90;;;;;;5081946;27;20599;-61
2022/04/17 03:26:21;;;;;;;2.20;1.85;;;-3.90;99.90;;;;;;5083263;28;21071;-61
2022/04/17 03:29:01;;;;;;;6.15;1.63;;;-3.90;99.90;;;;;;5084185;27;20539;-61
2022/04/17 03:31:41;;;;;;;2.17;2.03;;;-4.00;99.90;;;;;;5109572;27;20555;-61
2022/04/17 03:34:21;;;;;;;2.35;2.00;;;-4.00;99.90;;;;;;5104748;27;20557;-61
2022/04/17 03:37:01;;;;;;;2.00;1.65;;;-4.10;99.90;;;;;;5084587;27;20987;-61
2022/04/17 03:39:40;;;;;;;1.63;1.52;;;-4.10;99.90;;;;;;5081303;27;21030;-61
2022/04/17 03:42:21;;;;;;;1.70;1.60;;;-4.20;99.90;;;;;;5093465;27;20567;-61
2022/04/17 03:45:03;;;;;;;2.08;1.98;;;-4.20;99.90;;;;;;5082858;27;20543;-61
2022/04/17 03:47:43;;;;;;;1.98;1.58;;;-4.20;99.90;;;;;;5060655;27;20578;-61
2022/04/17 03:50:23;;;;;;;1.92;1.83;;;-4.20;99.90;;;;;;5062072;27;20598;-61
2022/04/17 03:53:03;;;;;;;1.80;1.70;;;-4.20;99.90;;;;;;5067381;27;20622;-61
2022/04/17 03:55:42;;;;;;;1.67;1.58;;;-4.30;99.90;;;;;;5084622;28;21022;-61
2022/04/17 03:58:22;;;;;;;1.80;1.70;;;-4.40;99.90;;;;;;5084869;27;20570;-61
2022/04/17 04:01:02;;;;;;;1.50;1.40;;;-4.40;99.90;;;;;;5081926;27;20606;-61
2022/04/17 04:03:42;;;;;;;2.28;1.92;;;-4.40;99.90;;;;;;5072148;27;20561;-61
2022/04/17 04:06:22;;;;;;;3.55;1.98;;;-4.20;99.90;;;;;;5080369;27;20551;-61
2022/04/17 04:09:02;;;;;;;1.83;1.60;;;-4.00;99.90;;;;;;5083211;28;21012;-61
2022/04/17 04:11:43;;;;;;;1.77;1.67;;;-4.00;99.90;;;;;;5124937;27;20556;-61
2022/04/17 04:14:23;;;;;;;2.38;1.80;;;-4.00;99.90;;;;;;5105060;27;20591;-61
2022/04/17 04:17:03;;;;;;;2.03;1.80;;;-4.00;99.90;;;;;;5084348;27;20557;-61
2022/04/17 04:19:42;;;;;;;3.13;1.70;;;-4.00;99.90;;;;;;5125043;27;20540;-60
2022/04/17 04:22:22;;;;;;;1.77;1.67;;;-4.00;99.90;;;;;;5073614;27;20614;-61
2022/04/17 04:25:02;;;;;;;1.60;1.50;;;-3.90;99.90;;;;;;5081608;27;20585;-61
2022/04/17 04:30:39;;;;;;;1.52;1.42;;;-3.90;99.90;;;;;;5084132;28;21137;-61
2022/04/17 04:33:19;;;;;;;2.55;1.92;;;-3.80;99.90;;;;;;5148769;27;20557;-61
2022/04/17 04:35:59;;;;;;;2.15;1.80;;;-3.60;99.90;;;;;;5099245;27;20607;-61
2022/04/17 04:38:40;;;;;;;1.92;1.83;;;-3.60;99.90;;;;;;5083897;27;20552;-61
2022/04/17 04:41:20;;;;;;;1.52;1.42;;;-3.50;99.90;;;;;;5101468;27;21143;-61
2022/04/17 04:44:00;;;;;;;1.83;1.40;;;-3.30;99.90;;;;;;5105390;27;20678;-61
2022/04/17 04:46:40;;;;;;;1.67;1.40;;;-3.30;99.90;;;;;;5104639;27;20566;-61
2022/04/17 04:49:32;;;;;;;1.55;1.45;;;-3.20;99.90;;;;;;5084279;27;20569;-60
2022/04/17 04:52:12;;;;;;;2.10;1.60;;;-3.10;99.90;;;;;;5095938;27;20555;-60
2022/04/17 04:54:52;;;;;;;1.60;1.50;;;-3.10;99.90;;;;;;5084573;27;20551;-60
2022/04/17 04:57:32;;;;;;;2.13;1.65;;;-3.10;99.90;;;;;;5084591;27;20561;-61
2022/04/17 05:00:14;;;;;;;2.10;1.90;;;-2.90;99.90;;;;;;5084361;27;20576;-60
2022/04/17 05:02:53;;;;;;;1.90;1.70;;;-2.70;99.90;;;;;;5069542;27;21090;-60
2022/04/17 05:05:34;;;;;;;2.00;1.80;;;-2.60;99.90;;;;;;5145260;27;20542;-61
2022/04/17 05:08:13;;;;;;;2.20;2.00;;;-2.50;99.90;;;;;;5084051;27;20572;-61
2022/04/17 05:10:53;;;;;;;3.63;1.85;;;-2.40;99.90;;;;;;5084195;27;20572;-60
2022/04/17 05:13:33;;;;;;;2.30;2.20;;;-2.20;99.90;;;;;;5104617;27;20550;-60
2022/04/17 05:16:13;;;;;;;1.73;1.63;;;-2.00;99.90;;;;;;5105032;27;20557;-60
2022/04/17 05:19:18;;;;;;;2.00;1.90;;;-1.70;99.90;;;;;;5104646;27;20546;-60
2022/04/17 05:21:57;;;;;;;2.20;1.95;;;-1.50;99.90;;;;;;5119218;27;20565;-60
2022/04/17 05:24:38;;;;;;;2.30;2.10;;;-1.30;99.90;;;;;;5084467;27;20556;-60
2022/04/17 05:27:22;;;;;;;2.10;1.90;;;-1.10;99.90;;;;;;5105049;27;20575;-60
2022/04/17 05:30:02;;;;;;;2.10;2.00;;;-0.80;99.90;;;;;;5104253;27;20550;-60
2022/04/17 05:32:42;;;;;;;2.15;2.05;;;-0.60;99.90;;;;;;5118505;27;20545;-60
2022/04/17 05:35:22;;;;;;;2.00;1.90;;;-0.60;99.90;;;;;;5104923;27;20566;-60
2022/04/17 05:38:02;;;;;;;2.13;2.00;;;-0.50;99.90;;;;;;5084129;27;20554;-60
2022/04/17 05:40:44;;;;;;;2.17;1.90;;;-0.50;99.90;;;;;;5084209;27;21012;-60
2022/04/17 05:43:24;;;;;;;2.05;1.80;;;-0.60;99.90;;;;;;5101975;27;20569;-60
2022/04/17 05:46:04;;;;;;;2.88;1.75;;;-0.70;99.90;;;;;;5139409;27;20676;-60
2022/04/17 05:48:44;;;;;;;2.08;1.80;;;-0.70;99.90;;;;;;5103596;27;20829;-60
2022/04/17 05:51:24;;;;;;;2.00;1.85;;;-0.70;99.90;;;;;;5101702;27;20592;-60
2022/04/17 05:54:07;;;;;;;2.13;1.70;;;-0.70;99.90;;;;;;5084512;28;20692;-60
2022/04/17 05:56:47;;;;;;;2.22;1.90;;;-0.60;99.90;;;;;;5084860;27;20569;-60
2022/04/17 05:59:26;;;;;;;1.83;1.73;;;-0.50;99.90;;;;;;5081147;27;20563;-59
2022/04/17 06:02:08;;;;;;;1.70;1.60;;;-0.40;99.90;;;;;;5138664;27;20851;-60
2022/04/17 06:04:48;;;;;;;2.83;1.70;;;-0.30;99.90;;;;;;5145772;27;20538;-60
2022/04/17 06:07:28;;;;;;;2.15;1.98;;;-0.20;99.90;;;;;;5077230;27;20578;-59
2022/04/17 06:10:10;;;;;;;1.73;1.63;;;-0.10;99.90;;;;;;5103333;27;21006;-60
2022/04/17 06:12:50;;;;;;;4.13;1.92;;;0.00;99.90;;;;;;5145698;27;21018;-60
2022/04/17 06:15:30;;;;;;;2.10;1.90;;;0.10;99.90;;;;;;5085218;27;20691;-59
2022/04/17 06:18:10;;;;;;;2.10;1.90;;;0.20;99.90;;;;;;5084834;27;20589;-60
2022/04/17 06:20:50;;;;;;;2.03;1.90;;;0.30;99.90;;;;;;5084780;27;20544;-59
2022/04/17 06:23:31;;;;;;;3.05;2.28;;;0.40;99.90;;;;;;5080320;27;20840;-59
2022/04/17 06:26:11;;;;;;;2.33;2.13;;;0.60;99.90;;;;;;5084246;27;20564;-58
2022/04/17 06:28:51;;;;;;;2.80;2.60;;;0.80;99.90;;;;;;5085097;27;20540;-58
2022/04/17 06:31:31;;;;;;;3.15;2.35;;;0.90;99.90;;;;;;5084336;27;20771;-58
2022/04/17 06:34:11;;;;;;;2.45;2.25;;;1.10;99.90;;;;;;5085234;27;21020;-59
2022/04/17 06:36:51;;;;;;;2.63;2.42;;;1.30;99.90;;;;;;5131984;27;20620;-59
2022/04/17 06:39:30;;;;;;;2.38;2.28;;;1.40;99.90;;;;;;5139862;27;20793;-58
2022/04/17 06:42:10;;;;;;;2.35;2.25;;;1.60;99.90;;;;;;5075994;28;20564;-58
2022/04/17 06:44:52;;;;;;;2.58;2.28;;;1.80;99.90;;;;;;5084510;27;20559;-60
2022/04/17 06:47:33;;;;;;;2.38;2.28;;;2.00;99.90;;;;;;5104993;27;20537;-60
2022/04/17 06:50:15;;;;;;;3.88;2.30;;;2.30;99.90;;;;;;5084091;27;20573;-60
2022/04/17 06:52:59;;;;;;;2.65;2.45;;;2.50;99.90;;;;;;5090120;27;21135;-60
2022/04/17 06:55:39;;;;;;;2.58;2.38;;;2.50;99.90;;;;;;5124966;27;21029;-60
2022/04/17 06:58:19;;;;;;;2.40;2.22;;;2.60;99.90;;;;;;5104506;27;21115;-60
2022/04/17 07:00:58;;;;;;;3.47;2.50;;;2.70;99.90;;;;;;5132078;27;20558;-60
2022/04/17 07:03:38;;;;;;;3.60;2.13;;;2.80;99.90;;;;;;5068432;28;20588;-59
2022/04/17 07:06:18;;;;;;;2.95;2.13;;;2.90;99.90;;;;;;5143568;27;20438;-60
2022/04/17 07:08:58;;;;;;;2.03;1.92;;;3.10;99.90;;;;;;5084554;28;20571;-61
2022/04/17 07:11:38;;;;;;;2.58;2.38;;;3.30;99.90;;;;;;5080573;27;20959;-60
2022/04/17 07:14:18;;;;;;;2.00;1.90;;;3.50;99.90;;;;;;5125718;27;20672;-58
2022/04/17 07:16:59;;;;;;;2.08;1.88;;;3.80;99.90;;;;;;5084437;27;20603;-58
2022/04/17 07:19:39;;;;;;;2.88;1.80;;;4.00;99.90;;;;;;5147914;27;20617;-58
2022/04/17 07:22:19;;;;;;;4.18;2.50;;;4.20;99.90;;;;;;5090871;27;20575;-58
2022/04/17 07:25:01;;;;;;;2.28;2.08;;;4.40;99.90;;;;;;5101216;27;20709;-58
2022/04/17 07:27:41;;;;;;;2.33;2.03;;;4.60;99.90;;;;;;5137434;27;21098;-58
2022/04/17 07:30:23;;;;;;;2.88;2.17;;;4.70;99.90;;;;;;5080023;27;20577;-58
2022/04/17 07:33:03;;;;;;;2.13;2.00;;;4.80;99.90;;;;;;5068236;27;21081;-58
2022/04/17 07:35:45;;;;;;;2.35;2.00;;;4.90;99.90;;;;;;5106706;27;20572;-56
2022/04/17 07:38:24;;;;;;;2.25;2.05;;;5.00;99.90;;;;;;5083874;27;20587;-58
2022/04/17 07:41:04;;;;;;;2.00;1.70;;;5.20;99.90;;;;;;5081256;27;20638;-58
2022/04/17 07:43:44;;;;;;;2.00;1.90;;;5.30;99.90;;;;;;5124571;27;20543;-58
2022/04/17 07:46:23;;;;;;;2.03;1.65;;;5.50;99.90;;;;;;5083822;27;20586;-58
2022/04/17 07:49:03;;;;;;;2.03;1.92;;;5.60;99.90;;;;;;5083894;27;20565;-58
2022/04/17 07:51:43;;;;;;;1.95;1.85;;;5.80;99.90;;;;;;5099432;27;20584;-58
2022/04/17 07:54:23;;;;;;;2.05;1.95;;;5.90;99.90;;;;;;5083305;27;20628;-58
2022/04/17 07:57:03;;;;;;;2.72;2.13;;;6.00;99.90;;;;;;5083948;27;21142;-58
2022/04/17 07:59:43;;;;;;;2.13;2.00;;;6.10;99.90;;;;;;5161724;27;20541;-58
2022/04/17 08:02:27;;;;;;;3.45;2.13;;;6.20;99.90;;;;;;5093509;27;20605;-58
2022/04/17 08:05:09;;;;;;;3.80;2.05;;;6.40;99.90;;;;;;5083123;27;20572;-58
2022/04/17 08:07:49;;;;;;;2.47;2.20;;;6.60;99.90;;;;;;5083599;27;20565;-58
2022/04/17 08:10:28;;;;;;;1.85;1.75;;;6.70;99.90;;;;;;5103109;27;20558;-58
2022/04/17 08:13:08;;;;;;;3.38;1.77;;;6.90;99.90;;;;;;5087438;27;21243;-58
2022/04/17 08:15:50;;;;;;;2.25;2.05;;;7.10;99.90;;;;;;5144262;27;20619;-58
2022/04/17 08:18:29;;;;;;;2.10;1.88;;;7.20;99.90;;;;;;5083951;28;20675;-59
2022/04/17 08:21:09;;;;;;;2.28;2.08;;;7.40;99.90;;;;;;5103619;27;21054;-59
2022/04/17 08:23:49;;;;;;;2.67;2.47;;;7.60;99.90;;;;;;5084810;27;21081;-58
2022/04/17 08:26:29;;;;;;;1.75;1.40;;;7.80;99.90;;;;;;5108270;27;20557;-58
2022/04/17 08:29:09;;;;;;;2.20;1.88;;;8.00;99.90;;;;;;5103827;27;20563;-58
2022/04/17 08:31:49;;;;;;;2.75;1.90;;;8.20;99.90;;;;;;5104276;27;20570;-57
2022/04/17 08:34:28;;;;;;;2.30;1.95;;;8.30;99.90;;;;;;5088904;27;20589;-59
2022/04/17 08:37:08;;;;;;;2.40;2.20;;;8.40;99.90;;;;;;5082755;28;21033;-58
2022/04/17 08:39:48;;;;;;;1.60;1.50;;;8.40;99.90;;;;;;5101830;27;20582;-58
2022/04/17 08:42:30;;;;;;;2.03;1.90;;;8.50;99.90;;;;;;5072759;27;20602;-59
2022/04/17 08:45:11;;;;;;;2.90;1.63;;;8.60;99.90;;;;;;5083750;27;20576;-58
2022/04/17 08:47:53;;;;;;;6.43;3.45;;;8.80;99.90;;;;;;5084110;27;20564;-58
2022/04/17 08:50:33;;;;;;;8.98;8.13;;;9.00;99.90;;;;;;5082476;27;21079;-58
2022/04/17 08:53:16;;;;;;;12.23;10.98;;;9.20;99.90;;;;;;5064822;28;20560;-59
2022/04/17 08:55:57;;;;;;;2.50;2.30;;;9.30;99.90;;;;;;5084024;28;20561;-58
2022/04/17 08:58:37;;;;;;;2.67;2.47;;;9.50;99.90;;;;;;5083780;27;20590;-59
2022/04/17 09:01:18;;;;;;;2.75;2.03;;;9.50;99.90;;;;;;5123074;27;21008;-59
2022/04/17 09:03:58;;;;;;;2.63;2.42;;;9.60;99.90;;;;;;5104391;27;20681;-59
2022/04/17 09:06:38;;;;;;;2.03;1.90;;;9.60;99.90;;;;;;5104611;27;20530;-59
2022/04/17 09:09:20;;;;;;;4.18;2.85;;;9.70;99.90;;;;;;5083792;27;20535;-59
2022/04/17 09:12:00;;;;;;;2.40;2.20;;;9.80;99.90;;;;;;5077488;27;20584;-59
2022/04/17 09:14:41;;;;;;;2.58;2.10;;;10.10;99.90;;;;;;5104571;27;20674;-60
2022/04/17 09:17:29;;;;;;;2.95;2.40;;;10.50;99.90;;;;;;5102294;27;20685;-59
2022/04/17 09:20:20;;;;;;;2.10;1.90;;;11.00;99.90;;;;;;5139591;27;20543;-60
2022/04/17 09:23:01;;;;;;;2.50;1.90;;;11.00;99.90;;;;;;5066644;27;21129;-59
2022/04/17 09:25:40;;;;;;;1.90;1.80;;;11.20;99.90;;;;;;5140797;27;20554;-59
2022/04/17 09:28:20;;;;;;;4.25;2.35;;;11.50;99.90;;;;;;5083124;28;20999;-59
2022/04/17 09:31:01;;;;;;;2.47;2.00;;;11.30;99.90;;;;;;5083705;28;21091;-59
2022/04/17 09:33:41;;;;;;;2.13;1.92;;;11.30;99.90;;;;;;5083570;27;21149;-59
2022/04/17 09:36:31;;;;;;;1.55;1.45;;;11.40;99.90;;;;;;5083224;27;20589;-59
2022/04/17 09:39:15;;;;;;;3.60;2.05;;;11.30;99.90;;;;;;5083021;28;20994;-59
2022/04/17 09:41:57;;;;;;;3.25;2.25;;;11.30;99.90;;;;;;5122069;27;20556;-59
2022/04/17 09:44:47;;;;;;;2.20;2.10;;;11.10;99.90;;;;;;5145322;27;20664;-59
2022/04/17 09:47:28;;;;;;;2.00;1.90;;;10.90;99.90;;;;;;5123859;27;20995;-59
2022/04/17 09:50:10;;;;;;;2.28;2.08;;;10.90;99.90;;;;;;5103590;27;20987;-59
2022/04/17 09:52:50;;;;;;;2.38;2.15;;;10.70;99.90;;;;;;5089754;27;20555;-59
2022/04/17 09:55:31;;;;;;;2.67;2.03;;;10.40;99.90;;;;;;5129641;27;20560;-59
2022/04/17 09:58:12;;;;;;;2.22;2.05;;;10.60;99.90;;;;;;5125657;27;20533;-59
2022/04/17 10:00:56;;;;;;;2.88;2.20;;;11.00;99.90;;;;;;5107434;27;21049;-59
2022/04/17 10:03:40;;;;;;;2.67;2.00;;;11.20;99.90;;;;;;5083888;27;20578;-59
2022/04/17 10:06:20;;;;;;;2.40;2.20;;;11.50;99.90;;;;;;5082195;28;20564;-60
2022/04/17 10:09:00;;;;;;;4.45;2.30;;;11.80;99.90;;;;;;5103243;27;20545;-59
2022/04/17 10:11:41;;;;;;;2.17;1.90;;;11.90;99.90;;;;;;5119184;27;20941;-59
2022/04/17 10:14:20;;;;;;;2.22;2.03;;;12.00;99.90;;;;;;5082707;27;21305;-59
2022/04/17 10:17:03;;;;;;;1.88;1.70;;;12.20;99.90;;;;;;5144684;27;20542;-59
2022/04/17 10:19:48;;;;;;;2.13;2.03;;;12.30;99.90;;;;;;5083592;28;20551;-59
2022/04/17 10:22:33;;;;;;;2.05;1.95;;;12.10;99.90;;;;;;5074099;27;20999;-60
2022/04/17 10:25:13;;;;;;;2.20;2.00;;;12.00;99.90;;;;;;5084449;28;20584;-59
2022/04/17 10:27:56;;;;;;;2.40;2.10;;;12.00;99.90;;;;;;5130090;27;20540;-59
2022/04/17 10:30:48;;;;;;;2.15;1.90;;;12.20;99.90;;;;;;5124710;27;20536;-60
2022/04/17 10:33:49;;;;;;;2.63;2.00;;;12.50;99.90;;;;;;5146014;27;20677;-59
2022/04/17 10:36:45;;;;;;;1.95;1.85;;;12.70;99.90;;;;;;5125633;27;20551;-59
2022/04/17 10:39:31;;;;;;;2.20;2.00;;;13.10;99.90;;;;;;5104829;27;20562;-59
2022/04/17 10:42:11;;;;;;;2.03;1.92;;;13.20;99.90;;;;;;5075723;28;21369;-59
2022/04/17 10:45:03;;;;;;;2.28;2.08;;;13.30;98.80;;;;;;5146176;27;20542;-60
2022/04/17 10:47:43;;;;;;;2.30;2.20;;;13.60;98.50;;;;;;5084617;28;20566;-59
2022/04/17 10:50:25;;;;;;;2.53;2.33;;;14.10;96.00;;;;;;5084392;28;20587;-60
2022/04/17 10:53:25;;;;;;;1.92;1.77;;;14.20;92.90;;;;;;5088897;27;20577;-60
2022/04/17 10:56:07;;;;;;;2.38;2.08;;;13.90;93.00;;;;;;5104682;27;20542;-60
2022/04/17 10:58:53;;;;;;;2.00;1.83;;;13.70;94.70;;;;;;5084678;27;20598;-59
2022/04/17 11:01:54;;;;;;;2.33;2.10;;;13.60;92.50;;;;;;5081403;27;20555;-60
2022/04/17 11:04:50;;;;;;;2.30;2.10;;;13.60;93.30;;;;;;5084637;27;21019;-59
2022/04/17 11:07:31;;;;;;;4.68;1.85;;;13.50;91.40;;;;;;5105109;27;20669;-59
2022/04/17 11:10:23;;;;;;;2.95;1.98;;;13.60;91.50;;;;;;5104535;27;20615;-60
2022/04/17 11:13:03;;;;;;;2.60;2.40;;;13.70;90.40;;;;;;5068601;27;20570;-59
2022/04/17 11:15:43;;;;;;;2.38;2.10;;;13.40;88.60;;;;;;5124890;27;20544;-60
2022/04/17 11:18:25;;;;;;;2.22;2.03;;;13.30;90.60;;;;;;5104843;27;20567;-59
2022/04/17 11:21:11;;;;;;;3.50;2.05;;;13.20;90.10;;;;;;5084213;27;20551;-59
2022/04/17 11:24:01;;;;;;;3.78;1.92;;;13.00;91.40;;;;;;5146705;27;21054;-59
2022/04/17 11:27:09;;;;;;;2.40;2.20;;;13.10;89.50;;;;;;5104853;27;20591;-59
2022/04/17 11:29:50;;;;;;;1.77;1.65;;;13.10;90.20;;;;;;5105011;27;20546;-59
2022/04/17 11:32:51;;;;;;;1.58;1.38;;;13.10;89.30;;;;;;5146067;27;20878;-59
2022/04/17 11:35:31;;;;;;;1.80;1.60;;;13.50;90.50;;;;;;5104675;27;20545;-59
2022/04/17 11:38:10;;;;;;;2.03;1.63;;;13.70;86.50;;;;;;5061739;27;21008;-59
2022/04/17 11:40:51;;;;;;;2.03;1.83;;;13.90;82.80;;;;;;5083679;27;20558;-59
2022/04/17 11:43:30;;;;;;;1.42;1.27;;;14.00;78.00;;;;;;5085356;27;20589;-60
2022/04/17 11:46:10;;;;;;;2.55;2.00;;;14.10;84.40;;;;;;5084640;27;20739;-59
2022/04/17 11:48:50;;;;;;;2.13;1.60;;;14.20;87.20;;;;;;5084717;27;20573;-59
2022/04/17 11:51:29;;;;;;;1.42;1.33;;;13.80;77.90;;;;;;5101871;27;21083;-59
2022/04/17 11:54:32;;;;;;;1.70;1.60;;;13.50;82.60;;;;;;5083805;27;21149;-59
2022/04/17 11:57:12;;;;;;;2.08;1.10;;;13.30;78.20;;;;;;5084098;27;20568;-59
2022/04/17 11:59:54;;;;;;;1.25;1.10;;;13.50;67.20;;;;;;5084264;27;20572;-59
2022/04/17 12:02:33;;;;;;;1.48;1.10;;;13.70;67.00;;;;;;5093341;27;21115;-60
2022/04/17 12:05:14;;;;;;;1.45;0.90;;;13.80;56.60;;;;;;5135693;27;20544;-59
2022/04/17 12:08:01;;;;;;;1.20;0.90;;;14.10;55.90;;;;;;5084749;27;20550;-60
2022/04/17 12:10:43;;;;;;;1.58;1.02;;;14.50;56.10;;;;;;5084845;27;20577;-60
2022/04/17 12:13:23;;;;;;;1.15;1.05;;;14.90;49.20;;;;;;5066166;27;20591;-60
2022/04/17 12:16:04;;;;;;;1.33;1.00;;;15.10;46.70;;;;;;5105220;27;20650;-60
2022/04/17 12:18:54;;;;;;;1.20;1.10;;;15.10;47.30;;;;;;5125743;27;20540;-59
2022/04/17 12:21:35;;;;;;;1.25;0.90;;;15.50;48.50;;;;;;5081257;27;21106;-59
2022/04/17 12:24:14;;;;;;;1.00;0.90;;;15.60;46.10;;;;;;5084673;28;20552;-59
2022/04/17 12:26:54;;;;;;;2.28;0.95;;;15.50;47.90;;;;;;5139106;27;20548;-59
2022/04/17 12:29:38;;;;;;;1.27;0.77;;;15.50;45.50;;;;;;5084295;27;20611;-60
2022/04/17 12:32:21;;;;;;;1.02;0.90;;;15.30;43.30;;;;;;5119034;27;20622;-59
2022/04/17 12:35:03;;;;;;;1.92;0.77;;;14.70;38.80;;;;;;5084819;27;20574;-60
2022/04/17 12:37:43;;;;;;;0.80;0.75;;;14.20;40.10;;;;;;5104824;27;20542;-59
2022/04/17 12:40:23;;;;;;;0.95;0.95;;;13.90;36.70;;;;;;5084379;27;20573;-59
2022/04/17 12:43:19;;;;;;;1.02;1.00;;;13.60;42.20;;;;;;5068772;27;20618;-59
2022/04/17 12:46:03;;;;;;;1.95;1.08;;;13.40;50.40;;;;;;5084634;27;20550;-59
2022/04/17 12:48:44;;;;;;;2.10;0.95;;;13.30;45.90;;;;;;5125333;27;20569;-59
2022/04/17 12:51:26;;;;;;;2.80;1.17;;;13.20;47.00;;;;;;5082328;27;20576;-59
2022/04/17 12:54:09;;;;;;;1.88;1.23;;;13.00;45.90;;;;;;5124994;27;20540;-59
2022/04/17 12:56:49;;;;;;;0.90;0.90;;;12.90;48.30;;;;;;5130516;27;20532;-59
2022/04/17 12:59:39;;;;;;;2.70;0.82;;;12.90;49.40;;;;;;5084106;27;20558;-59
2022/04/17 13:02:20;;;;;;;0.73;0.73;;;12.80;43.80;;;;;;5155525;27;21057;-59
2022/04/17 13:05:00;;;;;;;2.13;1.90;;;12.80;46.60;;;;;;5104807;27;20563;-59
2022/04/17 13:07:43;;;;;;;0.93;0.90;;;12.80;47.60;;;;;;5131859;27;20547;-59
2022/04/17 13:10:31;;;;;;;1.17;1.08;;;12.80;43.70;;;;;;5084085;27;20569;-59
2022/04/17 13:13:10;;;;;;;1.33;0.73;;;12.70;43.20;;;;;;5067698;27;20587;-59
2022/04/17 13:15:50;;;;;;;0.60;0.60;;;12.70;42.10;;;;;;5084708;27;20588;-59
2022/04/17 13:18:33;;;;;;;1.02;0.70;;;12.70;42.30;;;;;;5084832;27;21080;-59
2022/04/17 13:21:14;;;;;;;1.05;0.70;;;12.70;41.40;;;;;;5104207;27;20611;-59
2022/04/17 13:23:59;;;;;;;0.80;0.80;;;12.60;42.60;;;;;;5084377;27;20571;-59
2022/04/17 13:26:39;;;;;;;0.88;0.88;;;12.70;42.80;;;;;;5084872;28;20565;-59
2022/04/17 13:29:19;;;;;;;1.13;0.60;;;12.80;43.70;;;;;;5084419;27;21091;-59
2022/04/17 13:31:58;;;;;;;1.35;0.70;;;12.80;44.10;;;;;;5077712;27;20564;-59
2022/04/17 13:34:39;;;;;;;0.80;0.70;;;12.80;42.60;;;;;;5084330;27;20569;-59
2022/04/17 13:40:15;;;;;;;0.90;0.50;;;12.80;41.10;;;;;;5104388;27;20563;-59
2022/04/17 13:42:56;;;;;;;0.77;0.60;;;12.80;42.00;;;;;;5090086;27;20567;-59
2022/04/17 13:45:38;;;;;;;0.68;0.68;;;12.80;39.00;;;;;;5084491;27;20547;-59
2022/04/17 13:48:18;;;;;;;0.75;0.55;;;12.80;39.70;;;;;;5104561;27;20554;-59
2022/04/17 13:51:01;;;;;;;0.47;0.47;;;12.70;41.20;;;;;;5084096;27;20570;-60
2022/04/17 13:53:41;;;;;;;1.30;0.75;;;12.80;41.50;;;;;;5084835;27;20557;-59
2022/04/17 13:56:21;;;;;;;0.98;0.50;;;12.80;39.10;;;;;;5085197;27;20552;-59
2022/04/17 13:59:05;;;;;;;1.25;0.60;;;12.80;38.30;;;;;;5105000;27;20547;-59
2022/04/17 14:01:45;;;;;;;0.52;0.50;;;12.80;36.80;;;;;;5079970;27;20981;-59
2022/04/17 14:04:25;;;;;;;1.65;0.43;;;12.80;35.70;;;;;;5084349;27;20591;-59
2022/04/17 14:07:08;;;;;;;0.70;0.70;;;12.80;38.70;;;;;;5145713;27;20550;-59
2022/04/17 14:09:49;;;;;;;0.70;0.70;;;12.80;38.20;;;;;;5118061;27;20541;-59
2022/04/17 14:12:28;;;;;;;1.00;0.60;;;12.80;39.20;;;;;;5074391;27;20885;-59
2022/04/17 14:15:09;;;;;;;0.90;0.52;;;12.70;38.30;;;;;;5084101;27;20554;-59
2022/04/17 14:17:49;;;;;;;0.55;0.52;;;12.70;38.60;;;;;;5104895;27;20571;-59